createdAt,value
2019-05-14T00:01:13.622Z,73.19
2019-05-14T00:03:41.362Z,73.05
2019-05-14T00:06:07.564Z,73.15
2019-05-14T00:08:33.600Z,73.40
2019-05-14T00:11:01.474Z,73.27
2019-05-14T00:13:27.751Z,73.55
2019-05-14T00:15:53.835Z,73.80
2019-05-14T00:18:22.213Z,73.84
2019-05-14T00:20:47.870Z,74.26
2019-05-14T00:23:13.976Z,74.33
2019-05-14T00:25:41.889Z,74.55
2019-05-14T00:28:07.939Z,74.59
2019-05-14T00:30:34.101Z,75.35
2019-05-14T00:33:01.253Z,75.16
2019-05-14T00:35:27.644Z,75.97
2019-05-14T00:37:53.687Z,76.48
2019-05-14T00:40:21.897Z,76.45
2019-05-14T00:42:48.031Z,76.32
2019-05-14T00:45:16.088Z,77.55
2019-05-14T00:47:42.131Z,77.16
2019-05-14T00:50:08.642Z,76.53
2019-05-14T00:52:35.267Z,76.87
2019-05-14T00:55:01.405Z,77.70
2019-05-14T00:57:27.424Z,78.17
2019-05-14T00:59:53.473Z,77.58
2019-05-14T01:02:21.615Z,77.41
2019-05-14T01:04:47.546Z,78.08
2019-05-14T01:07:13.575Z,78.48
2019-05-14T01:09:41.834Z,78.17
2019-05-14T01:12:07.612Z,77.98
2019-05-14T01:14:33.728Z,77.80
2019-05-14T01:17:01.804Z,77.67
2019-05-14T01:19:27.581Z,77.82
2019-05-14T01:21:53.628Z,78.19
2019-05-14T01:24:21.466Z,78.74
2019-05-14T01:26:47.537Z,79.42
2019-05-14T01:29:13.592Z,79.06
2019-05-14T01:31:41.607Z,79.30
2019-05-14T01:34:07.850Z,79.58
2019-05-14T01:36:33.832Z,80.31
2019-05-14T01:39:01.789Z,80.24
2019-05-14T01:41:27.845Z,79.70
2019-05-14T01:43:53.969Z,80.69
2019-05-14T01:46:21.072Z,80.63
2019-05-14T01:48:47.292Z,80.45
2019-05-14T01:51:13.317Z,80.38
2019-05-14T01:53:41.486Z,80.39
2019-05-14T01:56:07.361Z,80.47
2019-05-14T01:58:33.356Z,80.64
2019-05-14T02:01:01.971Z,80.53
2019-05-14T02:03:28.033Z,80.99
2019-05-14T02:05:54.072Z,80.82
2019-05-14T02:08:21.441Z,80.72
2019-05-14T02:10:47.633Z,80.83
2019-05-14T02:13:13.666Z,80.68
2019-05-14T02:15:42.728Z,80.97
2019-05-14T02:18:07.564Z,81.77
2019-05-14T02:20:33.560Z,81.67
2019-05-14T02:23:01.557Z,81.84
2019-05-14T02:25:27.534Z,82.47
2019-05-14T02:27:53.513Z,82.75
2019-05-14T02:30:24.798Z,83.05
2019-05-14T02:32:49.824Z,82.93
2019-05-14T02:35:15.317Z,83.02
2019-05-14T02:37:41.352Z,83.38
2019-05-14T02:40:09.885Z,83.24
2019-05-14T02:42:35.949Z,83.09
2019-05-14T02:45:04.697Z,82.73
2019-05-14T02:47:30.665Z,82.99
2019-05-14T02:49:58.969Z,82.95
2019-05-14T02:52:24.593Z,83.10
2019-05-14T02:54:50.579Z,83.38
2019-05-14T02:57:19.728Z,83.41
2019-05-14T02:59:44.942Z,83.58
2019-05-14T03:02:10.991Z,83.34
2019-05-14T03:04:39.559Z,83.62
2019-05-14T03:07:05.083Z,83.31
2019-05-14T03:09:31.347Z,83.28
2019-05-14T03:11:59.467Z,83.76
2019-05-14T03:14:25.731Z,83.76
2019-05-14T03:16:51.894Z,83.79
2019-05-14T03:19:19.670Z,84.57
2019-05-14T03:21:45.894Z,84.50
2019-05-14T03:24:12.138Z,84.95
2019-05-14T03:26:39.765Z,84.28
2019-05-14T03:29:09.581Z,84.58
2019-05-14T03:31:34.273Z,84.20
2019-05-14T03:34:02.825Z,84.43
2019-05-14T03:36:34.175Z,84.15
2019-05-14T03:38:59.210Z,84.03
2019-05-14T03:41:24.476Z,84.77
2019-05-14T03:43:50.626Z,84.47
2019-05-14T03:46:20.294Z,82.60
2019-05-14T03:48:44.638Z,81.09
2019-05-14T03:51:10.782Z,81.40
2019-05-14T03:53:55.894Z,81.81
2019-05-14T03:56:04.863Z,82.38
2019-05-14T03:58:31.014Z,83.31
2019-05-14T04:01:00.636Z,83.60
2019-05-14T04:03:29.549Z,83.28
2019-05-14T04:05:59.401Z,83.24
2019-05-14T04:08:25.095Z,83.65
2019-05-14T04:10:54.230Z,82.94
2019-05-14T04:13:22.463Z,82.67
2019-05-14T04:15:52.213Z,82.91
2019-05-14T04:18:19.503Z,82.45
2019-05-14T04:20:50.156Z,83.41
2019-05-14T04:23:15.734Z,83.14
2019-05-14T04:25:42.525Z,83.78
2019-05-14T04:28:12.468Z,83.23
2019-05-14T04:30:40.185Z,83.11
2019-05-14T04:33:10.347Z,82.22
2019-05-14T04:35:34.995Z,82.05
2019-05-14T04:38:00.971Z,82.61
2019-05-14T04:40:29.636Z,82.32
2019-05-14T04:42:54.921Z,81.85
2019-05-14T04:45:20.937Z,81.67
2019-05-14T04:47:49.794Z,81.78
2019-05-14T04:50:14.988Z,81.18
2019-05-14T04:52:41.102Z,80.59
2019-05-14T04:55:09.875Z,80.47
2019-05-14T04:57:35.454Z,79.80
2019-05-14T05:00:01.876Z,80.04
2019-05-14T05:02:30.203Z,79.78
2019-05-14T05:04:55.951Z,79.28
2019-05-14T05:07:21.988Z,79.33
2019-05-14T05:09:50.142Z,79.19
2019-05-14T05:12:15.905Z,79.38
2019-05-14T05:14:41.893Z,78.87
2019-05-14T05:17:09.244Z,78.46
2019-05-14T05:19:35.542Z,78.28
2019-05-14T05:22:01.529Z,78.24
2019-05-14T05:24:28.772Z,78.45
2019-05-14T05:26:54.965Z,78.03
2019-05-14T05:29:21.039Z,77.68
2019-05-14T05:31:48.820Z,77.23
2019-05-14T05:34:15.276Z,76.52
2019-05-14T05:36:43.230Z,76.36
2019-05-14T05:39:09.333Z,75.52
2019-05-14T05:41:35.481Z,74.65
2019-05-14T05:44:01.859Z,74.34
2019-05-14T05:46:28.650Z,73.95
2019-05-14T05:48:54.780Z,72.67
2019-05-14T05:51:20.795Z,72.42
2019-05-14T05:53:48.403Z,72.02
2019-05-14T05:56:15.772Z,71.42
2019-05-14T05:58:41.764Z,71.08
2019-05-14T06:01:09.572Z,71.21
2019-05-14T06:03:35.743Z,71.06
2019-05-14T06:06:01.749Z,71.88
2019-05-14T06:08:28.249Z,71.69
2019-05-14T06:10:54.368Z,71.26
2019-05-14T06:13:20.400Z,69.96
2019-05-14T06:15:49.404Z,70.81
2019-05-14T06:18:18.353Z,70.98
2019-05-14T06:20:42.306Z,70.89
2019-05-14T06:23:08.562Z,68.84
2019-05-14T06:25:34.895Z,68.54
2019-05-14T06:28:01.076Z,68.37
2019-05-14T06:30:32.219Z,66.35
2019-05-14T06:32:59.363Z,66.15
2019-05-14T06:35:28.475Z,63.61
2019-05-14T06:37:54.750Z,62.55
2019-05-14T06:40:21.057Z,60.97
2019-05-14T06:42:48.548Z,58.89
2019-05-14T06:45:14.844Z,56.51
2019-05-14T06:47:40.846Z,56.17
2019-05-14T06:50:11.649Z,56.34
2019-05-14T06:52:38.596Z,54.67
2019-05-14T06:55:09.156Z,54.02
2019-05-14T06:57:39.095Z,54.42
2019-05-14T07:00:08.861Z,53.54
2019-05-14T07:02:34.910Z,53.82
2019-05-14T07:05:01.220Z,51.82
2019-05-14T07:07:30.005Z,51.88
2019-05-14T07:09:55.228Z,51.45
2019-05-14T07:12:26.212Z,52.38
2019-05-14T07:14:52.220Z,50.00
2019-05-14T07:17:20.162Z,50.09
2019-05-14T07:19:49.095Z,49.02
2019-05-14T07:22:19.563Z,48.16
2019-05-14T07:24:45.804Z,46.85
2019-05-14T07:27:11.821Z,48.23
2019-05-14T07:29:38.751Z,48.26
2019-05-14T07:32:05.010Z,48.26
2019-05-14T07:34:33.029Z,47.97
2019-05-14T07:37:00.924Z,47.68
2019-05-14T07:39:29.051Z,47.30
2019-05-14T07:41:54.943Z,46.46
2019-05-14T07:44:20.941Z,45.33
2019-05-14T07:46:48.320Z,44.99
2019-05-14T07:49:14.557Z,45.14
2019-05-14T07:51:40.593Z,44.80
2019-05-14T07:54:08.304Z,44.46
2019-05-14T07:56:34.593Z,44.66
2019-05-14T07:59:02.360Z,49.08
2019-05-14T08:01:28.418Z,46.06
2019-05-14T08:03:54.475Z,47.78
2019-05-14T08:06:22.613Z,48.50
2019-05-14T08:08:49.385Z,48.34
2019-05-14T08:11:15.689Z,45.44
2019-05-14T08:13:42.663Z,43.08
2019-05-14T08:16:09.029Z,43.40
2019-05-14T08:18:35.178Z,44.27
2019-05-14T08:21:08.280Z,43.74
2019-05-14T08:23:35.983Z,43.12
2019-05-14T08:26:03.605Z,42.42
2019-05-14T08:28:40.837Z,41.80
2019-05-14T08:31:09.440Z,40.61
2019-05-14T08:33:35.009Z,38.72
2019-05-14T08:36:03.929Z,39.72
2019-05-14T08:38:29.959Z,40.91
2019-05-14T08:40:56.000Z,39.27
2019-05-14T08:43:22.022Z,37.43
2019-05-14T08:45:51.820Z,38.30
2019-05-14T08:48:19.037Z,37.77
2019-05-14T08:50:45.299Z,37.24
2019-05-14T08:53:11.281Z,37.32
2019-05-14T08:55:38.158Z,37.19
2019-05-14T08:58:04.498Z,39.24
2019-05-14T09:00:32.563Z,40.44
2019-05-14T09:03:03.141Z,39.41
2019-05-14T09:05:29.184Z,38.63
2019-05-14T09:07:59.034Z,34.79
2019-05-14T09:10:25.069Z,31.44
2019-05-14T09:12:51.153Z,33.29
2019-05-14T09:15:18.618Z,33.48
2019-05-14T09:17:48.590Z,33.78
2019-05-14T09:20:14.903Z,31.68
2019-05-14T09:22:40.936Z,30.27
2019-05-14T09:25:08.478Z,30.06
2019-05-14T09:27:34.631Z,30.48
2019-05-14T09:30:02.568Z,30.09
2019-05-14T09:32:29.147Z,29.83
2019-05-14T09:34:58.934Z,29.71
2019-05-14T09:37:25.219Z,29.80
2019-05-14T09:39:51.258Z,29.39
2019-05-14T09:42:19.461Z,28.74
2019-05-14T09:44:45.165Z,28.42
2019-05-14T09:47:11.186Z,28.27
2019-05-14T09:49:38.814Z,27.32
2019-05-14T09:52:05.108Z,27.21
2019-05-14T09:54:33.125Z,26.05
2019-05-14T09:57:01.137Z,25.36
2019-05-14T09:59:28.013Z,27.73
2019-05-14T10:01:58.388Z,29.73
2019-05-14T10:04:24.018Z,30.01
2019-05-14T10:06:53.060Z,31.22
2019-05-14T10:09:19.144Z,31.75
2019-05-14T10:11:48.614Z,30.80
2019-05-14T10:14:14.790Z,29.24
2019-05-14T10:16:40.800Z,28.30
2019-05-14T10:19:06.780Z,28.30
2019-05-14T10:21:32.839Z,28.87
2019-05-14T10:23:58.907Z,28.02
2019-05-14T10:26:24.959Z,26.79
2019-05-14T10:28:51.017Z,26.47
2019-05-14T10:31:18.287Z,26.21
2019-05-14T10:33:48.542Z,24.97
2019-05-14T10:36:18.772Z,25.95
2019-05-14T10:38:44.285Z,26.52
2019-05-14T10:41:12.286Z,26.21
2019-05-14T10:43:40.212Z,24.55
2019-05-14T10:46:09.059Z,24.35
2019-05-14T10:48:36.361Z,23.96
2019-05-14T10:51:04.204Z,24.56
2019-05-14T10:53:30.191Z,24.86
2019-05-14T10:55:58.301Z,24.80
2019-05-14T10:58:24.872Z,25.09
2019-05-14T11:00:51.025Z,27.17
2019-05-14T11:03:24.637Z,27.89
2019-05-14T11:05:52.932Z,27.96
2019-05-14T11:08:19.154Z,28.80
2019-05-14T11:10:49.748Z,30.40
2019-05-14T11:13:15.190Z,30.15
2019-05-14T11:15:42.448Z,29.07
2019-05-14T11:18:09.060Z,28.79
2019-05-14T11:20:35.045Z,29.37
2019-05-14T11:23:01.638Z,29.55
2019-05-14T11:25:28.720Z,28.16
2019-05-14T11:27:54.985Z,27.82
2019-05-14T11:30:21.617Z,28.72
2019-05-14T11:32:49.208Z,29.88
2019-05-14T11:35:15.535Z,31.24
2019-05-14T11:37:41.657Z,32.53
2019-05-14T11:40:08.775Z,32.61
2019-05-14T11:42:34.838Z,31.99
2019-05-14T11:45:00.966Z,31.76
2019-05-14T11:47:27.076Z,31.99
2019-05-14T11:49:53.096Z,32.21
2019-05-14T11:52:19.321Z,32.33
2019-05-14T11:54:45.327Z,31.71
2019-05-14T11:57:11.922Z,30.05
2019-05-14T11:59:39.089Z,28.97
2019-05-14T12:02:05.252Z,28.65
2019-05-14T12:04:31.237Z,27.88
2019-05-14T12:06:59.178Z,29.61
2019-05-14T12:09:25.274Z,27.32
2019-05-14T12:11:51.360Z,27.18
2019-05-14T12:14:19.135Z,26.69
2019-05-14T12:16:45.253Z,26.07
2019-05-14T12:19:12.067Z,26.12
2019-05-14T12:21:39.789Z,26.03
2019-05-14T12:24:06.951Z,25.86
2019-05-14T12:26:33.946Z,26.24
2019-05-14T12:29:00.044Z,25.96
2019-05-14T12:31:26.067Z,26.38
2019-05-14T12:33:52.096Z,25.77
2019-05-14T12:36:19.367Z,25.48
2019-05-14T12:38:45.737Z,25.83
2019-05-14T12:41:11.875Z,24.95
2019-05-14T12:43:39.787Z,24.51
2019-05-14T12:46:05.798Z,23.99
2019-05-14T12:48:31.831Z,24.34
2019-05-14T12:50:59.450Z,24.23
2019-05-14T12:53:28.526Z,23.64
2019-05-14T12:55:53.554Z,23.83
2019-05-14T12:58:20.408Z,23.90
2019-05-14T13:00:48.612Z,23.58
2019-05-14T13:03:14.523Z,23.63
2019-05-14T13:05:40.557Z,23.93
2019-05-14T13:08:11.266Z,23.94
2019-05-14T13:10:34.496Z,23.85
2019-05-14T13:13:00.700Z,23.54
2019-05-14T13:15:28.714Z,23.25
2019-05-14T13:17:54.622Z,24.62
2019-05-14T13:20:21.715Z,25.49
2019-05-14T13:22:50.405Z,25.16
2019-05-14T13:25:18.391Z,25.20
2019-05-14T13:27:43.593Z,25.02
2019-05-14T13:30:10.340Z,24.64
2019-05-14T13:32:39.360Z,24.74
2019-05-14T13:35:09.428Z,24.19
2019-05-14T13:37:33.462Z,24.75
2019-05-14T13:39:59.562Z,25.19
2019-05-14T13:42:25.605Z,25.09
2019-05-14T13:44:51.745Z,25.36
2019-05-14T13:47:18.228Z,25.62
2019-05-14T13:49:44.485Z,25.12
2019-05-14T13:52:10.506Z,25.58
2019-05-14T13:54:39.138Z,25.36
2019-05-14T13:57:04.440Z,25.02
2019-05-14T13:59:30.466Z,26.13
2019-05-14T14:01:59.176Z,26.03
2019-05-14T14:04:24.394Z,26.24
2019-05-14T14:06:50.432Z,26.54
2019-05-14T14:09:16.465Z,27.28
2019-05-14T14:11:42.583Z,26.06
2019-05-14T14:14:09.045Z,26.24
2019-05-14T14:16:35.279Z,26.93
2019-05-14T14:19:03.249Z,27.55
2019-05-14T14:21:30.127Z,27.44
2019-05-14T14:23:59.026Z,27.60
2019-05-14T14:26:24.712Z,27.99
2019-05-14T14:28:50.741Z,28.21
2019-05-14T14:31:18.895Z,29.05
2019-05-14T14:33:44.729Z,28.63
2019-05-14T14:36:10.849Z,27.59
2019-05-14T14:38:39.907Z,27.77
2019-05-14T14:41:04.967Z,28.31
2019-05-14T14:43:31.027Z,28.62
2019-05-14T14:45:59.293Z,28.31
2019-05-14T14:48:25.034Z,29.52
2019-05-14T14:50:51.169Z,29.24
2019-05-14T14:53:21.808Z,29.86
2019-05-14T14:55:45.299Z,31.01
2019-05-14T14:58:11.896Z,30.43
2019-05-14T15:00:38.197Z,30.66
2019-05-14T15:03:04.321Z,30.88
2019-05-14T15:05:30.710Z,30.62
2019-05-14T15:07:59.897Z,30.25
2019-05-14T15:10:24.696Z,29.98
2019-05-14T15:12:50.695Z,30.13
2019-05-14T15:15:18.610Z,30.56
2019-05-14T15:17:44.782Z,28.72
2019-05-14T15:20:11.028Z,30.41
2019-05-14T15:22:37.214Z,31.85
2019-05-14T15:25:04.038Z,31.10
2019-05-14T15:27:30.191Z,31.30
2019-05-14T15:29:59.099Z,31.77
2019-05-14T15:32:24.226Z,32.63
2019-05-14T15:34:50.755Z,32.42
2019-05-14T15:37:19.065Z,32.57
2019-05-14T15:39:44.939Z,32.39
2019-05-14T15:42:13.690Z,32.91
2019-05-14T15:44:48.991Z,32.69
2019-05-14T15:47:11.218Z,33.47
2019-05-14T15:49:34.849Z,34.55
2019-05-14T15:52:01.118Z,33.42
2019-05-14T15:54:39.137Z,32.94
2019-05-14T15:56:55.212Z,33.15
2019-05-14T15:59:21.500Z,34.84
2019-05-14T16:01:47.557Z,35.16
2019-05-14T16:04:13.545Z,35.23
2019-05-14T16:06:39.548Z,35.72
2019-05-14T16:09:05.838Z,35.71
2019-05-14T16:11:32.141Z,36.32
2019-05-14T16:13:58.128Z,36.66
2019-05-14T16:16:24.159Z,36.55
2019-05-14T16:18:50.144Z,36.91
2019-05-14T16:21:18.269Z,36.82
2019-05-14T16:23:44.110Z,36.81
2019-05-14T16:26:10.103Z,37.37
2019-05-14T16:28:36.159Z,37.65
2019-05-14T16:31:02.501Z,37.74
2019-05-14T16:33:29.430Z,37.91
2019-05-14T16:35:57.859Z,37.93
2019-05-14T16:38:23.678Z,37.54
2019-05-14T16:40:49.965Z,36.78
2019-05-14T16:43:15.978Z,36.99
2019-05-14T16:45:41.968Z,37.29
2019-05-14T16:48:10.933Z,37.64
2019-05-14T16:50:36.065Z,37.74
2019-05-14T16:53:02.119Z,37.85
2019-05-14T16:55:30.701Z,37.68
2019-05-14T16:57:58.240Z,38.65
2019-05-14T17:00:24.094Z,38.93
2019-05-14T17:02:50.156Z,39.78
2019-05-14T17:05:16.157Z,38.66
2019-05-14T17:07:42.242Z,38.78
2019-05-14T17:10:08.731Z,39.23
2019-05-14T17:12:49.660Z,39.77
2019-05-14T17:15:04.829Z,40.83
2019-05-14T17:17:30.853Z,40.28
2019-05-14T17:19:58.786Z,40.38
2019-05-14T17:22:29.623Z,40.60
2019-05-14T17:24:52.903Z,40.75
2019-05-14T17:27:19.020Z,40.52
2019-05-14T17:29:45.048Z,40.76
2019-05-14T17:32:11.038Z,40.72
2019-05-14T17:34:38.583Z,40.61
2019-05-14T17:37:05.036Z,40.99
2019-05-14T17:39:31.322Z,41.44
2019-05-14T17:41:58.919Z,41.14
2019-05-14T17:44:25.089Z,41.92
2019-05-14T17:46:51.101Z,42.24
2019-05-14T17:49:19.126Z,41.86
2019-05-14T17:51:45.153Z,42.39
2019-05-14T17:54:11.216Z,42.10
2019-05-14T17:56:39.005Z,42.17
2019-05-14T17:59:05.142Z,42.79
2019-05-14T18:01:31.289Z,43.16
2019-05-14T18:03:58.396Z,43.37
2019-05-14T18:06:24.591Z,42.82
2019-05-14T18:08:50.775Z,42.92
2019-05-14T18:11:19.048Z,42.96
2019-05-14T18:13:44.815Z,43.08
2019-05-14T18:16:10.911Z,42.87
2019-05-14T18:18:36.933Z,43.28
2019-05-14T18:21:03.064Z,43.44
2019-05-14T18:23:29.139Z,43.42
2019-05-14T18:26:07.141Z,43.76
2019-05-14T18:28:23.576Z,43.66
2019-05-14T18:30:49.939Z,43.46
2019-05-14T18:33:18.580Z,43.66
2019-05-14T18:35:47.514Z,44.21
2019-05-14T18:38:12.220Z,44.07
2019-05-14T18:40:39.727Z,44.28
2019-05-14T18:43:08.546Z,44.86
2019-05-14T18:45:34.007Z,44.77
2019-05-14T18:48:00.060Z,45.44
2019-05-14T18:50:28.660Z,44.76
2019-05-14T18:52:54.158Z,44.77
2019-05-14T18:55:20.168Z,45.07
2019-05-14T18:57:48.542Z,44.70
2019-05-14T19:00:15.310Z,44.78
2019-05-14T19:02:41.517Z,45.81
2019-05-14T19:05:08.600Z,45.99
2019-05-14T19:07:34.824Z,46.69
2019-05-14T19:10:01.038Z,47.33
2019-05-14T19:12:28.974Z,47.49
2019-05-14T19:14:55.085Z,46.88
2019-05-14T19:17:21.099Z,46.76
2019-05-14T19:19:48.179Z,46.46
2019-05-14T19:22:14.501Z,46.53
2019-05-14T19:24:40.780Z,46.52
2019-05-14T19:27:09.101Z,46.61
2019-05-14T19:29:34.975Z,47.15
2019-05-14T19:32:01.091Z,47.10
2019-05-14T19:34:28.742Z,47.68
2019-05-14T19:36:54.968Z,47.14
2019-05-14T19:39:20.976Z,47.86
2019-05-14T19:41:48.406Z,48.51
2019-05-14T19:44:14.636Z,47.25
2019-05-14T19:46:40.891Z,47.24
2019-05-14T19:49:08.133Z,47.14
2019-05-14T19:51:34.298Z,48.15
2019-05-14T19:54:00.322Z,48.71
2019-05-14T19:56:29.141Z,49.64
2019-05-14T19:58:54.281Z,49.71
2019-05-14T20:01:20.349Z,50.10
2019-05-14T20:03:46.493Z,49.38
2019-05-14T20:06:12.502Z,48.63
2019-05-14T20:08:38.761Z,47.95
2019-05-14T20:11:04.862Z,47.98
2019-05-14T20:13:30.869Z,48.07
2019-05-14T20:15:58.917Z,48.70
2019-05-14T20:18:24.782Z,48.63
2019-05-14T20:20:50.803Z,49.33
2019-05-14T20:23:18.527Z,48.77
2019-05-14T20:25:44.716Z,48.71
2019-05-14T20:28:10.790Z,48.71
2019-05-14T20:30:38.652Z,48.95
2019-05-14T20:33:04.835Z,49.28
2019-05-14T20:35:34.900Z,49.04
2019-05-14T20:37:58.759Z,48.68
2019-05-14T20:43:06.135Z,48.57
2019-05-14T20:45:32.561Z,48.64
2019-05-14T20:47:58.744Z,48.87
2019-05-14T20:50:25.110Z,48.83
2019-05-14T20:52:54.619Z,48.84
2019-05-14T20:55:20.641Z,48.92
2019-05-14T20:57:48.749Z,49.21
2019-05-14T21:00:29.499Z,49.78
2019-05-14T21:02:55.659Z,50.05
2019-05-14T21:05:23.805Z,49.86
2019-05-14T21:07:51.916Z,50.87
2019-05-14T21:10:19.154Z,52.82
2019-05-14T21:12:45.423Z,53.84
2019-05-14T21:15:11.814Z,54.45
2019-05-14T21:17:38.027Z,55.57
2019-05-14T21:20:05.135Z,55.14
2019-05-14T21:22:31.263Z,55.39
2019-05-14T21:24:57.323Z,54.82
2019-05-14T21:27:37.568Z,55.50
2019-05-14T21:29:51.285Z,53.13
2019-05-14T21:32:19.488Z,52.95
2019-05-14T21:34:45.371Z,52.86
2019-05-14T21:37:11.402Z,54.00
2019-05-14T21:39:38.334Z,53.60
2019-05-14T21:42:10.939Z,53.60
2019-05-14T21:44:39.232Z,52.90
2019-05-14T21:47:05.290Z,53.15
2019-05-14T21:49:31.342Z,53.78
2019-05-14T21:51:58.410Z,53.88
2019-05-14T21:54:31.085Z,53.45
2019-05-14T21:56:58.668Z,53.19
2019-05-14T21:59:24.543Z,52.83
2019-05-14T22:01:50.769Z,52.46
2019-05-14T22:04:18.595Z,52.25
2019-05-14T22:06:44.782Z,51.47
2019-05-14T22:09:10.934Z,50.14
2019-05-14T22:11:39.367Z,48.62
2019-05-14T22:14:05.215Z,49.47
2019-05-14T22:16:31.212Z,51.28
2019-05-14T22:18:59.241Z,51.74
2019-05-14T22:21:25.161Z,53.57
2019-05-14T22:23:51.229Z,54.30
2019-05-14T22:26:18.608Z,54.81
2019-05-14T22:28:44.856Z,55.31
2019-05-14T22:31:10.878Z,56.06
2019-05-14T22:33:38.159Z,57.10
2019-05-14T22:36:04.436Z,57.53
2019-05-14T22:38:30.462Z,57.96
2019-05-14T22:40:56.469Z,58.00
2019-05-14T22:43:22.446Z,57.99
2019-05-14T22:45:48.477Z,58.66
2019-05-14T22:48:14.704Z,58.90
2019-05-14T22:50:41.432Z,59.06
2019-05-14T22:53:09.384Z,59.20
2019-05-14T22:55:35.544Z,59.41
2019-05-14T22:58:01.521Z,59.38
2019-05-14T23:00:28.611Z,60.05
2019-05-14T23:02:55.050Z,60.15
2019-05-14T23:05:21.104Z,60.36
2019-05-14T23:07:48.549Z,60.81
2019-05-14T23:10:14.942Z,61.23
2019-05-14T23:12:40.941Z,62.20
2019-05-14T23:15:07.436Z,62.23
2019-05-14T23:17:33.659Z,62.44
2019-05-14T23:19:59.704Z,62.47
2019-05-14T23:22:25.695Z,62.35
2019-05-14T23:24:51.678Z,62.85
2019-05-14T23:27:18.825Z,63.19
2019-05-14T23:29:45.054Z,62.92
2019-05-14T23:32:11.156Z,62.63
2019-05-14T23:34:38.002Z,62.93
2019-05-14T23:37:04.381Z,62.95
2019-05-14T23:39:30.650Z,62.92
2019-05-14T23:41:58.295Z,62.78
2019-05-14T23:44:24.460Z,62.78
2019-05-14T23:46:50.503Z,62.36
2019-05-14T23:49:18.422Z,62.72
2019-05-14T23:51:44.362Z,63.58
2019-05-14T23:54:10.385Z,63.22
2019-05-14T23:56:38.366Z,63.69
2019-05-14T23:59:04.365Z,64.07
